Time;durP1;ratioP1;P1;durP2;ratioP2;P2;SDS_P1;SDS_P2;PMS_P1;PMS_P2;Temp;Humidity;BMP_temperature;BMP_pressure;BME280_temperature;BME280_humidity;BME280_pressure;Samples;Min_cycle;Max_cycle;Signal;HPM_P1;HPM_P2
2021/09/27 00:01:28;;;;;;;19.17;16.35;;;16.90;99.90;;;;;;5002851;28;20117;-79
2021/09/27 00:03:55;;;;;;;19.75;16.92;;;16.90;99.90;;;;;;5001932;28;20063;-80
2021/09/27 00:06:22;;;;;;;19.02;16.50;;;16.90;99.90;;;;;;5001165;28;20077;-79
2021/09/27 00:08:49;;;;;;;18.23;15.90;;;16.90;99.90;;;;;;5000830;28;20082;-79
2021/09/27 00:11:20;;;;;;;18.90;16.77;;;16.80;99.90;;;;;;4998282;28;20053;-79
2021/09/27 00:13:51;;;;;;;24.88;17.55;;;16.70;99.90;;;;;;4997251;28;20074;-79
2021/09/27 00:16:20;;;;;;;20.30;17.33;;;16.60;99.90;;;;;;5003408;28;20088;-79
2021/09/27 00:18:47;;;;;;;20.38;17.25;;;16.60;99.90;;;;;;5003952;28;20178;-78
2021/09/27 00:21:17;;;;;;;22.73;18.08;;;16.60;99.90;;;;;;5004130;28;20054;-79
2021/09/27 00:23:45;;;;;;;22.70;17.83;;;16.60;99.90;;;;;;5002263;28;20128;-80
2021/09/27 00:26:12;;;;;;;21.52;17.65;;;16.70;99.90;;;;;;5002947;28;20141;-80
2021/09/27 00:28:39;;;;;;;24.00;18.85;;;16.70;99.90;;;;;;5005853;28;20101;-80
2021/09/27 00:31:07;;;;;;;23.80;17.25;;;16.70;99.90;;;;;;5009409;28;20077;-82
2021/09/27 00:33:36;;;;;;;20.73;18.08;;;16.70;99.90;;;;;;5010886;28;20057;-82
2021/09/27 00:36:03;;;;;;;20.60;17.80;;;16.60;99.90;;;;;;5010496;28;20085;-80
2021/09/27 00:38:33;;;;;;;24.05;18.42;;;16.60;99.90;;;;;;5009140;28;20113;-81
2021/09/27 00:41:03;;;;;;;20.27;17.58;;;16.60;99.90;;;;;;5008887;28;20145;-81
2021/09/27 00:43:34;;;;;;;18.83;16.67;;;16.70;99.90;;;;;;5009683;28;20065;-81
2021/09/27 00:46:06;;;;;;;26.15;18.63;;;16.70;99.90;;;;;;5007337;28;20418;-81
2021/09/27 00:48:33;;;;;;;23.23;17.85;;;16.70;99.90;;;;;;5001783;28;20050;-82
2021/09/27 00:51:05;;;;;;;22.20;19.08;;;16.70;99.90;;;;;;5002907;28;20140;-81
2021/09/27 00:53:36;;;;;;;24.95;19.38;;;16.60;99.90;;;;;;5003679;28;20160;-81
2021/09/27 00:56:04;;;;;;;23.67;19.05;;;16.70;99.90;;;;;;5004932;28;20119;-79
2021/09/27 00:58:31;;;;;;;26.92;18.23;;;16.70;99.90;;;;;;5010276;28;20347;-80
2021/09/27 01:01:01;;;;;;;21.80;19.50;;;16.70;99.90;;;;;;5011742;28;20084;-80
2021/09/27 01:03:31;;;;;;;25.73;19.25;;;16.70;99.90;;;;;;5010463;28;20527;-80
2021/09/27 01:06:12;;;;;;;23.33;19.17;;;16.60;99.90;;;;;;5010546;28;20054;-80
2021/09/27 01:08:53;;;;;;;25.65;19.92;;;16.60;99.90;;;;;;5010140;28;20050;-80
2021/09/27 01:11:42;;;;;;;22.25;18.42;;;16.70;99.90;;;;;;5009607;28;20054;-81
2021/09/27 01:14:27;;;;;;;24.33;19.42;;;16.60;99.90;;;;;;5008197;28;20054;-81
2021/09/27 01:17:03;;;;;;;25.13;18.98;;;16.60;99.90;;;;;;5009567;28;20123;-81
2021/09/27 01:19:59;;;;;;;23.63;19.73;;;16.60;99.90;;;;;;5010048;28;20063;-81
2021/09/27 01:22:46;;;;;;;26.10;20.83;;;16.60;99.90;;;;;;4977750;28;20050;-81
2021/09/27 01:25:28;;;;;;;27.23;21.40;;;16.50;99.90;;;;;;5010666;28;20077;-81
2021/09/27 01:28:27;;;;;;;25.48;20.38;;;16.50;99.90;;;;;;5009100;28;20073;-81
2021/09/27 01:31:24;;;;;;;25.45;20.48;;;16.40;99.90;;;;;;4982122;28;20077;-82
2021/09/27 01:34:04;;;;;;;26.95;20.73;;;16.40;99.90;;;;;;5006629;28;20050;-83
2021/09/27 01:36:41;;;;;;;26.13;20.70;;;16.40;99.90;;;;;;5012210;28;20046;-84
2021/09/27 01:39:21;;;;;;;25.27;18.98;;;16.40;99.90;;;;;;5012280;28;20042;-83
2021/09/27 01:42:00;;;;;;;26.27;19.52;;;16.50;99.90;;;;;;5013442;28;20038;-82
2021/09/27 01:44:35;;;;;;;24.60;19.95;;;16.50;99.90;;;;;;5011313;28;20076;-83
2021/09/27 01:47:24;;;;;;;21.08;18.23;;;16.50;99.90;;;;;;5006559;28;20085;-82
2021/09/27 01:50:02;;;;;;;25.27;19.13;;;16.50;99.90;;;;;;5001765;28;20408;-83
2021/09/27 01:52:51;;;;;;;27.13;18.63;;;16.60;99.90;;;;;;5007131;28;20073;-83
2021/09/27 01:55:32;;;;;;;23.52;18.63;;;16.60;99.90;;;;;;5009072;28;20046;-82
2021/09/27 01:58:08;;;;;;;21.08;18.05;;;16.60;99.90;;;;;;5006307;28;20069;-82
2021/09/27 02:00:40;;;;;;;22.80;18.48;;;16.70;99.90;;;;;;5003133;28;20051;-82
2021/09/27 02:03:17;;;;;;;25.90;18.75;;;16.70;99.90;;;;;;5003086;28;20082;-82
2021/09/27 02:05:58;;;;;;;24.08;17.85;;;16.70;99.90;;;;;;5004895;28;20074;-82
2021/09/27 02:08:34;;;;;;;21.95;17.92;;;16.70;99.90;;;;;;5003021;28;20137;-82
2021/09/27 02:11:07;;;;;;;24.45;18.52;;;16.70;99.90;;;;;;5003611;28;20066;-81
2021/09/27 02:13:40;;;;;;;27.58;19.20;;;16.70;99.90;;;;;;5001804;28;20054;-81
2021/09/27 02:16:11;;;;;;;22.65;17.48;;;16.70;99.90;;;;;;5003116;28;20129;-82
2021/09/27 02:18:41;;;;;;;24.10;19.15;;;16.60;99.90;;;;;;5001128;28;20130;-82
2021/09/27 02:21:15;;;;;;;26.23;19.58;;;16.60;99.90;;;;;;5001008;28;20081;-80
2021/09/27 02:23:46;;;;;;;25.88;20.65;;;16.60;99.90;;;;;;4997653;28;20430;-77
2021/09/27 02:26:13;;;;;;;24.40;20.05;;;16.50;99.90;;;;;;4993782;28;20054;-77
2021/09/27 02:28:40;;;;;;;24.60;19.50;;;16.40;99.90;;;;;;4994682;28;20048;-78
2021/09/27 02:31:14;;;;;;;26.67;19.88;;;16.40;99.90;;;;;;4998388;28;20073;-80
2021/09/27 02:33:51;;;;;;;25.27;19.50;;;16.30;99.90;;;;;;5006611;28;20214;-79
2021/09/27 02:36:24;;;;;;;23.40;18.77;;;16.30;99.90;;;;;;5014333;28;20081;-79
2021/09/27 02:39:00;;;;;;;23.60;18.95;;;16.30;99.90;;;;;;5013075;28;20106;-78
2021/09/27 02:41:35;;;;;;;26.83;20.50;;;16.20;99.90;;;;;;5009760;28;20081;-77
2021/09/27 02:44:02;;;;;;;24.83;19.65;;;16.10;99.90;;;;;;4997898;28;20133;-77
2021/09/27 02:46:30;;;;;;;21.73;19.13;;;16.00;99.90;;;;;;4997570;28;20050;-77
2021/09/27 02:48:58;;;;;;;27.95;19.60;;;16.00;99.90;;;;;;4996837;28;20142;-77
2021/09/27 02:51:29;;;;;;;23.17;19.30;;;16.00;99.90;;;;;;4995831;28;20064;-77
2021/09/27 02:53:56;;;;;;;26.88;20.40;;;16.00;99.90;;;;;;4996778;28;20093;-77
2021/09/27 02:56:54;;;;;;;26.35;20.17;;;16.00;99.90;;;;;;4975668;28;20113;-77
2021/09/27 02:59:32;;;;;;;28.77;20.45;;;15.90;99.90;;;;;;4977361;28;20047;-77
2021/09/27 03:02:13;;;;;;;27.30;21.42;;;15.90;99.90;;;;;;4994991;28;20180;-77
2021/09/27 03:04:54;;;;;;;26.83;21.13;;;15.80;99.90;;;;;;4995757;28;20480;-76
2021/09/27 03:07:36;;;;;;;29.73;22.15;;;15.80;99.90;;;;;;4995064;28;20123;-78
2021/09/27 03:10:13;;;;;;;28.92;21.48;;;15.80;99.90;;;;;;4976431;28;20142;-77
2021/09/27 03:12:47;;;;;;;26.35;21.05;;;15.80;99.90;;;;;;4976433;28;20057;-77
2021/09/27 03:15:34;;;;;;;27.33;22.13;;;15.80;99.90;;;;;;4976182;28;20500;-77
2021/09/27 03:18:11;;;;;;;27.17;21.08;;;15.70;99.90;;;;;;4976079;28;20062;-76
2021/09/27 03:20:55;;;;;;;25.13;21.08;;;15.70;99.90;;;;;;4975759;28;20082;-78
2021/09/27 03:23:35;;;;;;;27.38;21.27;;;15.70;99.90;;;;;;4975809;28;20126;-77
2021/09/27 03:26:09;;;;;;;28.08;21.35;;;15.60;99.90;;;;;;4976461;28;20101;-77
2021/09/27 03:28:46;;;;;;;26.63;21.88;;;15.60;99.90;;;;;;4975479;28;20587;-78
2021/09/27 03:31:30;;;;;;;24.83;21.30;;;15.60;99.90;;;;;;4975735;28;20053;-77
2021/09/27 03:34:15;;;;;;;28.23;21.75;;;15.60;99.90;;;;;;4976850;28;20058;-78
2021/09/27 03:37:01;;;;;;;31.70;22.48;;;15.60;99.90;;;;;;4976158;28;20610;-78
2021/09/27 03:39:40;;;;;;;26.48;22.30;;;15.60;99.90;;;;;;4975672;28;20432;-78
2021/09/27 03:42:12;;;;;;;28.10;20.77;;;15.70;99.90;;;;;;4974381;28;20066;-78
2021/09/27 03:44:52;;;;;;;25.80;21.42;;;15.60;99.90;;;;;;4992125;28;20064;-78
2021/09/27 03:47:25;;;;;;;25.52;20.50;;;15.70;99.90;;;;;;4994564;28;20050;-79
2021/09/27 03:50:00;;;;;;;26.52;21.45;;;15.70;99.90;;;;;;4995737;28;20050;-75
2021/09/27 03:52:33;;;;;;;27.83;21.17;;;15.70;99.90;;;;;;4996072;28;20054;-75
2021/09/27 03:55:09;;;;;;;27.80;21.67;;;15.70;99.90;;;;;;4995649;28;20137;-77
2021/09/27 03:57:42;;;;;;;25.55;21.30;;;15.70;99.90;;;;;;4995674;28;20534;-77
2021/09/27 04:00:11;;;;;;;25.95;21.65;;;15.60;99.90;;;;;;4995573;28;20129;-77
2021/09/27 04:02:42;;;;;;;29.50;21.83;;;15.70;99.90;;;;;;4995466;28;20133;-78
2021/09/27 04:05:16;;;;;;;25.52;21.08;;;15.70;99.90;;;;;;4997269;28;20409;-77
2021/09/27 04:08:02;;;;;;;28.52;20.13;;;15.70;99.90;;;;;;4995285;28;20129;-77
2021/09/27 04:10:51;;;;;;;28.30;20.50;;;15.80;99.90;;;;;;4995547;28;20137;-78
2021/09/27 04:13:28;;;;;;;26.52;20.55;;;15.80;99.90;;;;;;4996099;28;20481;-77
2021/09/27 04:16:08;;;;;;;28.67;20.60;;;15.80;99.90;;;;;;4996771;28;20092;-77
2021/09/27 04:18:45;;;;;;;25.45;19.92;;;15.80;99.90;;;;;;4995682;28;20054;-77
2021/09/27 04:21:19;;;;;;;28.95;20.42;;;15.90;99.90;;;;;;4996470;28;20050;-77
2021/09/27 04:23:59;;;;;;;28.63;21.48;;;15.90;99.90;;;;;;4995491;28;20057;-77
2021/09/27 04:26:41;;;;;;;27.70;20.85;;;15.90;99.90;;;;;;4995702;28;20054;-78
2021/09/27 04:29:44;;;;;;;25.58;21.13;;;16.00;99.90;;;;;;4994994;28;20053;-78
2021/09/27 04:32:18;;;;;;;25.35;20.25;;;15.90;99.90;;;;;;4996097;28;20050;-77
2021/09/27 04:34:58;;;;;;;24.38;19.70;;;16.00;99.90;;;;;;4996307;28;20110;-78
2021/09/27 04:37:28;;;;;;;28.80;20.75;;;16.00;99.90;;;;;;4998419;28;20085;-77
2021/09/27 04:39:55;;;;;;;27.30;19.38;;;16.00;99.90;;;;;;4995474;28;20062;-77
2021/09/27 04:42:42;;;;;;;26.67;19.55;;;16.00;99.90;;;;;;4995011;28;20054;-77
2021/09/27 04:45:29;;;;;;;24.52;19.38;;;16.00;99.90;;;;;;4995078;28;20054;-78
2021/09/27 04:48:06;;;;;;;23.42;18.13;;;16.10;99.90;;;;;;4995689;28;20054;-78
2021/09/27 04:50:43;;;;;;;26.25;19.33;;;16.10;99.90;;;;;;4996362;28;20054;-77
2021/09/27 04:53:23;;;;;;;24.05;19.17;;;16.10;99.90;;;;;;4995687;28;20141;-77
2021/09/27 04:56:03;;;;;;;22.83;18.73;;;16.10;99.90;;;;;;4994939;28;20057;-77
2021/09/27 04:58:57;;;;;;;21.88;18.27;;;16.20;99.90;;;;;;4995665;28;20137;-78
2021/09/27 05:01:53;;;;;;;23.67;17.90;;;16.20;99.90;;;;;;4994937;28;20054;-77
2021/09/27 05:04:48;;;;;;;23.08;18.60;;;16.20;99.90;;;;;;4992080;28;20596;-77
2021/09/27 05:07:40;;;;;;;22.17;17.77;;;16.20;99.90;;;;;;4994816;28;20054;-77
2021/09/27 05:10:22;;;;;;;22.70;17.57;;;16.30;99.90;;;;;;4998459;28;20050;-78
2021/09/27 05:13:14;;;;;;;21.35;16.48;;;16.30;99.90;;;;;;4995326;28;20209;-77
2021/09/27 05:16:06;;;;;;;21.67;17.95;;;16.30;99.90;;;;;;4994688;28;20142;-77
2021/09/27 05:18:50;;;;;;;23.55;17.13;;;16.30;99.90;;;;;;4994057;28;20501;-77
2021/09/27 05:21:45;;;;;;;20.48;16.92;;;16.30;99.90;;;;;;4987304;28;20057;-76
2021/09/27 05:24:34;;;;;;;19.35;17.08;;;16.20;99.90;;;;;;4962994;28;20054;-76
2021/09/27 05:27:27;;;;;;;22.73;17.80;;;16.20;99.90;;;;;;4974522;28;20057;-76
2021/09/27 05:30:04;;;;;;;23.85;18.75;;;16.20;99.90;;;;;;4974154;28;20477;-77
2021/09/27 05:32:42;;;;;;;22.02;18.30;;;16.20;99.90;;;;;;4974905;28;20137;-77
2021/09/27 05:35:26;;;;;;;24.20;18.70;;;16.20;99.90;;;;;;4974766;28;20050;-76
2021/09/27 05:38:04;;;;;;;23.38;19.13;;;16.10;99.90;;;;;;4974650;28;20512;-77
2021/09/27 05:40:44;;;;;;;26.45;20.00;;;16.10;99.90;;;;;;4974440;28;20047;-77
2021/09/27 05:43:35;;;;;;;24.58;19.30;;;16.00;99.90;;;;;;5020825;23;20133;-80
2021/09/27 05:46:28;;;;;;;26.30;20.17;;;16.00;99.90;;;;;;4979276;28;20115;-81
2021/09/27 05:49:03;;;;;;;23.38;19.98;;;16.00;99.90;;;;;;4986583;28;20119;-80
2021/09/27 05:51:37;;;;;;;22.83;19.00;;;15.90;99.90;;;;;;4982872;28;20556;-80
2021/09/27 05:54:10;;;;;;;29.35;19.65;;;15.90;99.90;;;;;;4983244;28;20122;-80
2021/09/27 05:56:46;;;;;;;21.83;18.60;;;15.90;99.90;;;;;;4984968;28;20062;-80
2021/09/27 05:59:21;;;;;;;23.35;17.40;;;15.90;99.90;;;;;;4983712;28;20106;-82
2021/09/27 06:01:57;;;;;;;22.40;18.70;;;15.90;99.90;;;;;;4984969;28;20074;-80
2021/09/27 06:04:38;;;;;;;20.25;17.73;;;15.90;99.90;;;;;;4997882;28;20078;-81
2021/09/27 06:07:13;;;;;;;21.13;17.52;;;15.90;99.90;;;;;;5005538;28;20046;-81
2021/09/27 06:09:58;;;;;;;24.42;18.33;;;16.00;99.90;;;;;;5008312;28;20046;-81
2021/09/27 06:12:37;;;;;;;20.70;17.00;;;16.00;99.90;;;;;;5004924;28;20074;-81
2021/09/27 06:15:08;;;;;;;22.38;17.08;;;16.10;99.90;;;;;;5008135;28;20054;-81
2021/09/27 06:18:02;;;;;;;22.02;17.52;;;16.20;99.90;;;;;;5008853;28;20085;-81
2021/09/27 06:20:37;;;;;;;20.98;16.35;;;16.20;99.90;;;;;;4998011;28;20050;-81
2021/09/27 06:23:21;;;;;;;19.92;15.93;;;16.30;99.90;;;;;;5007557;28;20088;-80
2021/09/27 06:25:57;;;;;;;21.73;16.42;;;16.50;99.90;;;;;;5003608;28;20058;-80
2021/09/27 06:28:31;;;;;;;17.58;14.40;;;16.80;99.90;;;;;;5006347;28;20078;-81
2021/09/27 06:31:02;;;;;;;15.68;13.98;;;17.10;99.90;;;;;;5005932;28;20383;-80
2021/09/27 06:33:36;;;;;;;17.13;14.07;;;17.40;99.90;;;;;;5003551;28;20083;-80
2021/09/27 06:36:32;;;;;;;17.90;14.52;;;17.70;99.90;;;;;;5005333;28;20143;-79
2021/09/27 06:39:04;;;;;;;18.02;13.57;;;17.90;99.90;;;;;;5004981;28;20047;-79
2021/09/27 06:41:34;;;;;;;18.93;14.87;;;18.00;99.90;;;;;;5008089;28;20073;-79
2021/09/27 06:44:01;;;;;;;17.80;15.00;;;18.10;99.90;;;;;;5008728;28;20047;-80
2021/09/27 06:46:30;;;;;;;18.52;15.13;;;18.00;99.90;;;;;;5010290;28;20046;-81
2021/09/27 06:49:03;;;;;;;18.33;14.98;;;17.90;99.90;;;;;;5009804;28;20046;-81
2021/09/27 06:51:31;;;;;;;17.92;15.02;;;17.80;99.90;;;;;;5005983;28;20051;-80
2021/09/27 06:54:03;;;;;;;19.40;16.23;;;17.80;99.90;;;;;;5008457;28;20050;-79
2021/09/27 06:56:30;;;;;;;23.75;15.57;;;17.80;99.90;;;;;;5005310;28;20081;-79
2021/09/27 06:58:57;;;;;;;19.92;15.80;;;17.80;99.90;;;;;;4997936;28;20137;-78
2021/09/27 07:01:24;;;;;;;17.83;15.15;;;17.80;99.90;;;;;;4993461;28;20496;-79
2021/09/27 07:03:51;;;;;;;19.80;14.95;;;17.80;99.90;;;;;;4993527;28;20075;-80
2021/09/27 07:06:18;;;;;;;18.23;15.23;;;17.80;99.90;;;;;;5010432;28;20084;-79
2021/09/27 07:08:46;;;;;;;19.15;15.43;;;17.80;99.90;;;;;;4999158;28;20086;-79
2021/09/27 07:11:14;;;;;;;18.58;15.60;;;17.90;99.90;;;;;;4990745;28;20034;-80
2021/09/27 07:13:42;;;;;;;17.67;14.95;;;18.00;99.90;;;;;;5008200;28;20084;-80
2021/09/27 07:16:10;;;;;;;21.42;14.45;;;18.10;99.90;;;;;;5004337;28;20190;-80
2021/09/27 07:18:37;;;;;;;17.73;14.00;;;18.20;99.90;;;;;;5000092;28;20195;-80
2021/09/27 07:21:05;;;;;;;15.95;14.10;;;18.60;99.90;;;;;;5011408;28;20074;-80
2021/09/27 07:23:37;;;;;;;16.63;13.30;;;18.90;99.90;;;;;;5012514;28;20082;-79
2021/09/27 07:26:06;;;;;;;19.33;13.55;;;19.20;99.90;;;;;;5012522;28;20114;-80
2021/09/27 07:28:33;;;;;;;16.73;12.73;;;19.50;99.90;;;;;;5009484;28;20085;-78
2021/09/27 07:31:00;;;;;;;15.77;13.23;;;19.60;99.90;;;;;;5010125;28;20051;-80
2021/09/27 07:33:27;;;;;;;17.88;13.85;;;19.80;99.90;;;;;;5012094;28;20057;-80
2021/09/27 07:35:55;;;;;;;15.48;12.70;;;19.60;99.90;;;;;;5011813;28;20070;-80
2021/09/27 07:38:22;;;;;;;21.50;13.90;;;19.50;99.90;;;;;;5012204;28;20046;-79
2021/09/27 07:40:49;;;;;;;16.35;12.85;;;19.40;99.90;;;;;;5010697;28;20069;-80
2021/09/27 07:43:18;;;;;;;17.25;13.57;;;19.60;99.90;;;;;;5013191;28;20054;-81
2021/09/27 07:45:46;;;;;;;15.48;13.55;;;19.80;99.90;;;;;;5012397;28;20046;-81
2021/09/27 07:48:15;;;;;;;14.63;13.13;;;20.00;99.90;;;;;;5011038;28;20054;-81
2021/09/27 07:50:45;;;;;;;17.90;13.40;;;20.10;99.90;;;;;;5009699;28;20077;-80
2021/09/27 07:53:13;;;;;;;16.10;12.48;;;20.20;99.90;;;;;;5009639;28;20070;-79
2021/09/27 07:55:40;;;;;;;14.02;11.88;;;20.20;99.90;;;;;;5009656;28;20082;-80
2021/09/27 07:58:07;;;;;;;14.93;12.15;;;20.20;99.90;;;;;;5009893;28;20078;-79
2021/09/27 08:00:36;;;;;;;14.10;11.68;;;20.20;99.90;;;;;;5003789;28;20145;-78
2021/09/27 08:03:03;;;;;;;16.67;13.35;;;20.20;99.90;;;;;;5001752;28;20531;-79
2021/09/27 08:05:34;;;;;;;15.20;12.05;;;20.20;99.90;;;;;;5006278;28;20156;-79
2021/09/27 08:08:01;;;;;;;14.60;12.05;;;20.10;99.90;;;;;;5004421;28;20049;-79
2021/09/27 08:10:29;;;;;;;14.10;12.45;;;20.10;99.90;;;;;;5004581;28;20134;-80
2021/09/27 08:12:57;;;;;;;16.10;12.23;;;20.10;99.90;;;;;;5005875;28;20055;-78
2021/09/27 08:15:27;;;;;;;14.80;12.18;;;20.40;99.90;;;;;;5006431;28;20051;-79
2021/09/27 08:17:57;;;;;;;13.98;11.77;;;20.60;99.90;;;;;;5006972;28;20093;-79
2021/09/27 08:20:26;;;;;;;14.85;11.68;;;21.00;99.90;;;;;;5004667;28;20088;-78
2021/09/27 08:22:55;;;;;;;14.13;11.43;;;20.90;99.90;;;;;;5004453;28;20077;-78
2021/09/27 08:25:23;;;;;;;13.43;11.38;;;20.70;99.90;;;;;;5006820;28;20058;-79
2021/09/27 08:27:51;;;;;;;13.43;12.00;;;20.80;99.90;;;;;;5008920;28;20074;-79
2021/09/27 08:30:22;;;;;;;16.40;11.82;;;20.90;99.90;;;;;;5006688;28;20078;-78
2021/09/27 08:32:49;;;;;;;12.43;10.77;;;21.10;99.90;;;;;;5007714;28;20066;-79
2021/09/27 08:35:18;;;;;;;17.33;11.20;;;21.30;99.90;;;;;;5008523;28;20073;-78
2021/09/27 08:37:45;;;;;;;13.63;10.85;;;21.50;99.90;;;;;;5006583;28;20046;-80
2021/09/27 08:40:30;;;;;;;13.07;10.77;;;21.60;99.90;;;;;;5008394;28;20073;-79
2021/09/27 08:42:59;;;;;;;12.80;10.75;;;21.60;99.90;;;;;;5004360;28;20379;-78
2021/09/27 08:45:29;;;;;;;13.32;11.20;;;21.80;99.90;;;;;;5001812;28;20046;-78
2021/09/27 08:48:02;;;;;;;12.75;10.48;;;21.90;99.90;;;;;;4998774;28;20054;-79
2021/09/27 08:50:35;;;;;;;14.73;10.15;;;21.80;99.90;;;;;;4999467;28;20281;-78
2021/09/27 08:53:06;;;;;;;12.57;10.48;;;21.60;99.90;;;;;;5008121;28;20089;-79
2021/09/27 08:55:37;;;;;;;11.07;9.80;;;21.40;99.90;;;;;;5008288;28;20070;-79
2021/09/27 08:58:27;;;;;;;12.68;10.23;;;21.50;99.90;;;;;;5008424;28;20050;-79
2021/09/27 09:01:00;;;;;;;12.52;9.80;;;21.40;99.90;;;;;;5005505;28;20073;-79
2021/09/27 09:03:28;;;;;;;;;;;21.30;99.90;;;;;;5004347;28;20115;-79
2021/09/27 09:06:03;;;;;;;11.07;9.65;;;21.30;99.90;;;;;;5003584;28;19985;-78
2021/09/27 09:08:39;;;;;;;13.65;9.70;;;21.20;99.90;;;;;;5004773;28;20129;-78
2021/09/27 09:11:19;;;;;;;13.77;9.43;;;21.30;99.90;;;;;;5005012;28;20047;-79
2021/09/27 09:13:49;;;;;;;14.63;9.57;;;21.30;99.90;;;;;;5005319;28;20050;-79
2021/09/27 09:16:19;;;;;;;11.50;9.00;;;21.40;99.90;;;;;;5004934;28;20169;-79
2021/09/27 09:18:49;;;;;;;8.95;8.02;;;21.50;99.90;;;;;;5006641;28;20085;-79
2021/09/27 09:21:25;;;;;;;11.48;8.80;;;21.70;99.90;;;;;;5006952;28;20042;-79
2021/09/27 09:23:54;;;;;;;9.45;8.10;;;21.90;99.90;;;;;;5007946;28;20051;-79
2021/09/27 09:26:27;;;;;;;10.25;7.72;;;22.10;99.90;;;;;;5006745;28;20086;-80
2021/09/27 09:28:56;;;;;;;9.50;7.70;;;22.10;99.90;;;;;;5006907;28;20050;-79
2021/09/27 09:31:33;;;;;;;10.48;7.72;;;22.00;99.90;;;;;;5006612;28;20054;-79
2021/09/27 09:34:21;;;;;;;10.93;7.10;;;22.10;99.90;;;;;;5005181;28;20054;-79
2021/09/27 09:36:51;;;;;;;11.75;7.35;;;22.20;99.90;;;;;;5004160;28;20057;-79
2021/09/27 09:39:23;;;;;;;8.60;7.10;;;22.30;99.90;;;;;;5002536;28;20097;-79
2021/09/27 09:41:52;;;;;;;10.83;7.40;;;22.30;99.90;;;;;;5004439;28;20050;-79
2021/09/27 09:44:23;;;;;;;13.75;7.35;;;22.40;99.90;;;;;;5004901;28;20113;-79
2021/09/27 09:47:00;;;;;;;10.25;7.40;;;22.40;99.90;;;;;;5002943;28;20081;-78
2021/09/27 09:49:30;;;;;;;11.90;7.13;;;22.40;99.90;;;;;;5002986;28;20054;-79
2021/09/27 09:52:03;;;;;;;11.60;6.55;;;22.40;99.90;;;;;;5003614;28;20140;-79
2021/09/27 09:54:38;;;;;;;7.35;6.20;;;22.40;99.90;;;;;;5002795;28;20058;-79
2021/09/27 09:57:15;;;;;;;11.15;6.88;;;22.40;99.90;;;;;;5001896;28;20060;-79
2021/09/27 09:59:55;;;;;;;9.00;6.20;;;22.40;99.90;;;;;;5000516;28;20108;-79
2021/09/27 10:02:24;;;;;;;8.73;6.40;;;22.40;99.90;;;;;;5001291;28;20133;-78
2021/09/27 10:04:58;;;;;;;8.07;5.20;;;22.40;99.90;;;;;;5002879;28;20054;-79
2021/09/27 10:07:37;;;;;;;9.27;5.95;;;22.30;99.90;;;;;;5003214;28;20054;-80
2021/09/27 10:10:09;;;;;;;8.65;5.00;;;22.30;99.90;;;;;;5001059;28;20057;-79
2021/09/27 10:12:47;;;;;;;8.10;5.47;;;22.30;99.90;;;;;;5002303;28;20106;-79
2021/09/27 10:15:17;;;;;;;6.35;4.80;;;22.30;99.90;;;;;;5003829;28;20104;-79
2021/09/27 10:17:44;;;;;;;5.97;4.70;;;22.30;99.90;;;;;;5001950;28;20134;-78
2021/09/27 10:20:16;;;;;;;9.02;4.75;;;22.50;99.90;;;;;;5001831;28;20485;-79
2021/09/27 10:22:54;;;;;;;8.02;4.63;;;22.70;99.90;;;;;;5002625;28;20106;-79
2021/09/27 10:25:29;;;;;;;7.57;4.63;;;22.80;99.90;;;;;;5002701;28;20054;-78
2021/09/27 10:27:58;;;;;;;9.85;5.18;;;22.80;99.90;;;;;;5001098;28;20082;-79
2021/09/27 10:30:39;;;;;;;8.07;5.18;;;22.80;99.90;;;;;;5004046;28;20078;-79
2021/09/27 10:33:20;;;;;;;5.50;4.80;;;22.80;99.90;;;;;;5003380;28;20124;-78
2021/09/27 10:35:54;;;;;;;9.98;5.18;;;22.70;99.90;;;;;;5002777;28;20074;-79
2021/09/27 10:38:27;;;;;;;12.15;5.07;;;22.70;99.90;;;;;;5003088;28;20120;-79
2021/09/27 10:40:55;;;;;;;9.80;5.30;;;22.60;99.90;;;;;;5003017;28;20130;-79
2021/09/27 10:43:26;;;;;;;6.28;4.72;;;22.60;99.90;;;;;;5001078;28;20146;-80
2021/09/27 10:45:59;;;;;;;8.73;4.88;;;22.60;99.90;;;;;;5003181;28;20548;-79
2021/09/27 10:48:26;;;;;;;7.35;5.00;;;22.40;99.90;;;;;;5001400;28;20137;-79
2021/09/27 10:50:57;;;;;;;11.60;5.30;;;22.40;99.90;;;;;;5004868;28;20498;-80
2021/09/27 10:53:33;;;;;;;7.30;5.03;;;22.40;99.90;;;;;;5004597;28;20054;-80
2021/09/27 10:56:07;;;;;;;7.13;5.78;;;22.60;99.90;;;;;;5005835;28;20089;-78
2021/09/27 10:58:41;;;;;;;6.88;5.15;;;22.70;99.90;;;;;;5004728;28;20054;-79
2021/09/27 11:01:10;;;;;;;11.25;5.22;;;22.80;99.90;;;;;;5006684;28;20068;-78
2021/09/27 11:03:43;;;;;;;7.53;4.78;;;22.80;99.90;;;;;;5004148;28;20081;-79
2021/09/27 11:06:27;;;;;;;9.18;5.03;;;22.80;99.90;;;;;;5003434;28;20054;-78
2021/09/27 11:09:00;;;;;;;9.25;5.10;;;22.90;99.90;;;;;;5003009;28;20110;-78
2021/09/27 11:11:48;;;;;;;8.93;5.07;;;22.90;99.90;;;;;;4999766;28;20132;-76
2021/09/27 11:14:38;;;;;;;6.80;4.88;;;23.00;99.90;;;;;;5000057;28;20137;-78
2021/09/27 11:17:25;;;;;;;7.13;4.75;;;23.10;99.90;;;;;;5002366;28;20056;-79
2021/09/27 11:20:38;;;;;;;5.40;3.90;;;23.30;99.90;;;;;;5004129;28;20133;-79
2021/09/27 11:23:19;;;;;;;4.70;3.97;;;23.30;99.90;;;;;;5004534;28;20050;-79
2021/09/27 11:25:49;;;;;;;5.63;3.90;;;23.30;99.90;;;;;;5004597;28;20054;-79
2021/09/27 11:28:41;;;;;;;6.63;3.78;;;23.30;99.90;;;;;;5004255;28;20124;-79
2021/09/27 11:31:33;;;;;;;7.03;4.35;;;23.30;99.90;;;;;;5003724;28;20057;-79
2021/09/27 11:34:21;;;;;;;4.25;3.70;;;23.50;99.90;;;;;;4998848;28;20187;-79
2021/09/27 11:37:08;;;;;;;5.50;4.10;;;23.50;99.90;;;;;;5007294;28;20082;-79
2021/09/27 11:39:42;;;;;;;4.60;3.80;;;23.50;99.90;;;;;;5007010;28;20428;-79
2021/09/27 11:42:30;;;;;;;4.70;3.60;;;23.50;99.90;;;;;;5017079;23;20398;-77
2021/09/27 11:45:26;;;;;;;4.30;3.70;;;23.60;99.90;;;;;;4991953;28;20073;-79
2021/09/27 11:48:01;;;;;;;5.70;3.92;;;23.70;99.90;;;;;;4998180;28;20086;-78
2021/09/27 11:51:05;;;;;;;6.28;3.65;;;23.80;99.90;;;;;;4998396;28;20054;-79
2021/09/27 11:54:07;;;;;;;5.90;3.33;;;23.80;99.90;;;;;;4998602;28;20058;-78
2021/09/27 11:56:45;;;;;;;5.65;4.13;;;23.80;99.90;;;;;;4971826;28;20061;-79
2021/09/27 11:59:17;;;;;;;4.65;3.63;;;23.70;99.90;;;;;;4996618;28;20081;-78
2021/09/27 12:01:52;;;;;;;6.47;3.90;;;23.80;99.90;;;;;;4996727;28;20139;-78
2021/09/27 12:04:45;;;;;;;4.75;3.85;;;23.80;99.90;;;;;;4996669;28;20064;-78
2021/09/27 12:07:17;;;;;;;5.18;3.90;;;23.90;99.90;;;;;;4996857;28;20050;-78
2021/09/27 12:09:48;;;;;;;7.70;3.83;;;24.00;99.90;;;;;;4996505;28;20061;-77
2021/09/27 12:12:23;;;;;;;4.55;3.90;;;24.10;99.90;;;;;;4996938;28;20080;-77
2021/09/27 12:14:52;;;;;;;4.88;4.03;;;24.00;99.90;;;;;;4997172;28;20092;-78
2021/09/27 12:17:23;;;;;;;5.00;3.90;;;24.10;99.90;;;;;;4997249;28;20069;-79
2021/09/27 12:19:56;;;;;;;6.32;3.75;;;24.10;99.90;;;;;;4996978;28;20050;-79
2021/09/27 12:22:30;;;;;;;6.07;4.05;;;23.90;99.90;;;;;;4997080;28;20134;-78
2021/09/27 12:25:01;;;;;;;5.35;3.90;;;23.80;99.90;;;;;;4997813;28;20074;-78
2021/09/27 12:27:32;;;;;;;4.90;3.90;;;23.80;99.90;;;;;;4997659;28;20110;-79
2021/09/27 12:30:05;;;;;;;4.72;3.80;;;23.70;99.90;;;;;;4997146;28;20086;-78
2021/09/27 12:32:36;;;;;;;4.53;4.00;;;23.70;99.90;;;;;;4997500;28;20046;-77
2021/09/27 12:35:06;;;;;;;4.20;3.80;;;23.60;99.90;;;;;;4997382;28;20097;-78
2021/09/27 12:37:37;;;;;;;4.88;3.55;;;23.60;99.90;;;;;;4997091;28;20141;-77
2021/09/27 12:40:07;;;;;;;8.05;3.90;;;23.60;99.90;;;;;;4996155;28;20141;-79
2021/09/27 12:42:44;;;;;;;5.22;4.07;;;23.50;99.90;;;;;;4997541;28;20223;-80
2021/09/27 12:45:25;;;;;;;4.97;4.00;;;23.40;99.90;;;;;;4998327;28;20090;-78
2021/09/27 12:47:55;;;;;;;5.30;4.20;;;23.30;99.90;;;;;;4996714;28;20089;-78
2021/09/27 12:50:30;;;;;;;6.70;4.22;;;23.30;99.90;;;;;;4996278;28;20089;-80
2021/09/27 12:53:00;;;;;;;5.35;4.03;;;23.30;99.90;;;;;;4996194;28;20585;-78
2021/09/27 12:55:34;;;;;;;5.07;3.95;;;23.30;99.90;;;;;;4995796;28;20078;-78
2021/09/27 12:58:09;;;;;;;5.80;4.28;;;23.30;99.90;;;;;;4995856;28;20543;-79
2021/09/27 13:00:41;;;;;;;5.25;4.22;;;23.20;99.90;;;;;;4996326;28;20059;-77
2021/09/27 13:03:17;;;;;;;5.65;4.13;;;23.10;99.90;;;;;;4997173;28;20081;-79
2021/09/27 13:06:01;;;;;;;10.63;5.55;;;23.00;99.90;;;;;;4998876;28;20104;-78
2021/09/27 13:08:31;;;;;;;7.53;4.65;;;22.90;99.90;;;;;;4997012;28;20133;-78
2021/09/27 13:10:59;;;;;;;6.90;4.88;;;22.80;99.90;;;;;;4997919;28;20054;-78
2021/09/27 13:13:32;;;;;;;5.75;4.38;;;22.70;99.90;;;;;;4997671;28;20203;-78
2021/09/27 13:16:00;;;;;;;;;;;22.70;99.90;;;;;;4998320;28;20057;-77